Time;durP1;ratioP1;P1;durP2;ratioP2;P2;SDS_P1;SDS_P2;PMS_P1;PMS_P2;Temp;Humidity;BMP_temperature;BMP_pressure;BME280_temperature;BME280_humidity;BME280_pressure;Samples;Min_cycle;Max_cycle;Signal;HPM_P1;HPM_P2
2022/12/11 00:00:56;;;;;;;23.35;15.18;;;-0.40;99.90;;;;;;5093888;27;20207;-78
2022/12/11 00:03:24;;;;;;;26.27;16.48;;;-0.30;1.00;;;;;;5096570;27;20425;-78
2022/12/11 00:05:53;;;;;;;36.85;19.15;;;-0.30;1.00;;;;;;5096375;28;20217;-76
2022/12/11 00:08:21;;;;;;;33.88;16.35;;;-0.30;99.90;;;;;;5100245;27;20194;-77
2022/12/11 00:10:49;;;;;;;25.27;14.15;;;-0.30;99.90;;;;;;5102288;27;20196;-78
2022/12/11 00:13:19;;;;;;;30.42;16.38;;;-0.30;99.90;;;;;;5093311;28;20220;-78
2022/12/11 00:15:47;;;;;;;18.38;12.70;;;-0.40;99.90;;;;;;5094836;28;20200;-78
2022/12/11 00:18:15;;;;;;;21.45;14.63;;;-0.40;99.90;;;;;;5095595;27;20208;-77
2022/12/11 00:20:43;;;;;;;31.38;16.73;;;-0.40;1.00;;;;;;5092759;28;20210;-77
2022/12/11 00:23:12;;;;;;;21.45;14.43;;;-0.60;1.00;;;;;;5093709;28;20224;-77
2022/12/11 00:25:42;;;;;;;25.23;15.73;;;-0.60;1.00;;;;;;5087859;28;20202;-78
2022/12/11 00:28:11;;;;;;;17.92;12.63;;;-0.60;13.70;;;;;;5097994;28;20241;-77
2022/12/11 00:30:41;;;;;;;17.40;13.48;;;-0.60;99.90;;;;;;5090040;28;20203;-77
2022/12/11 00:33:10;;;;;;;17.92;12.20;;;-0.60;1.00;;;;;;5092682;28;20215;-77
2022/12/11 00:35:39;;;;;;;15.40;11.73;;;-0.70;1.00;;;;;;5093346;28;20226;-77
2022/12/11 00:38:07;;;;;;;16.13;11.25;;;-0.60;1.00;;;;;;5094836;28;20296;-78
2022/12/11 00:40:36;;;;;;;17.67;11.98;;;-0.70;1.00;;;;;;5095102;28;20196;-77
2022/12/11 00:43:04;;;;;;;15.63;11.00;;;-0.70;99.90;;;;;;5094969;27;20600;-77
2022/12/11 00:45:36;;;;;;;13.77;10.80;;;-0.80;1.00;;;;;;5092498;28;20253;-76
2022/12/11 00:48:07;;;;;;;14.20;11.32;;;-1.00;1.00;;;;;;5093350;28;20659;-77
2022/12/11 00:50:36;;;;;;;14.18;10.73;;;-0.80;1.00;;;;;;5095183;27;20225;-76
2022/12/11 00:53:06;;;;;;;13.48;9.85;;;-0.80;1.00;;;;;;5094875;27;20215;-77
2022/12/11 00:55:37;;;;;;;16.50;12.80;;;-0.80;1.00;;;;;;5091739;28;20272;-77
2022/12/11 00:58:06;;;;;;;14.27;11.20;;;-0.70;1.00;;;;;;5094957;28;20227;-75
2022/12/11 01:00:34;;;;;;;16.50;11.40;;;-0.80;1.00;;;;;;5091977;28;20294;-75
2022/12/11 01:03:02;;;;;;;12.23;10.77;;;-0.70;99.90;;;;;;5091875;28;20219;-76
2022/12/11 01:05:32;;;;;;;16.38;12.07;;;-0.70;99.90;;;;;;5092801;28;20202;-78
2022/12/11 01:08:00;;;;;;;18.83;13.15;;;-0.70;99.90;;;;;;5093061;28;20200;-75
2022/12/11 01:10:29;;;;;;;22.88;14.00;;;-0.60;1.00;;;;;;5095171;28;20200;-77
2022/12/11 01:12:59;;;;;;;24.23;14.70;;;-0.60;1.00;;;;;;5092516;28;20223;-75
2022/12/11 01:15:29;;;;;;;19.88;12.48;;;-0.60;1.00;;;;;;5090798;28;20195;-76
2022/12/11 01:17:57;;;;;;;22.05;14.65;;;-0.60;99.90;;;;;;5092921;28;20187;-77
2022/12/11 01:20:28;;;;;;;21.80;13.82;;;-0.50;99.90;;;;;;5096394;28;20207;-77
2022/12/11 01:22:59;;;;;;;19.95;12.70;;;-0.40;1.00;;;;;;5091545;28;20229;-78
2022/12/11 01:25:28;;;;;;;19.85;13.43;;;-0.40;1.00;;;;;;5093985;28;20195;-76
2022/12/11 01:27:56;;;;;;;23.77;14.15;;;-0.40;1.00;;;;;;5089077;28;20202;-77
2022/12/11 01:30:25;;;;;;;34.90;19.75;;;-0.40;1.00;;;;;;5095760;28;20192;-77
2022/12/11 01:32:54;;;;;;;34.20;18.80;;;-0.40;1.00;;;;;;5086464;28;20261;-79
2022/12/11 01:35:22;;;;;;;24.35;14.85;;;-0.40;99.90;;;;;;5095618;28;20253;-78
2022/12/11 01:37:50;;;;;;;17.15;11.90;;;-0.30;99.90;;;;;;5090485;28;20272;-79
2022/12/11 01:40:24;;;;;;;19.77;13.13;;;-0.40;99.90;;;;;;5094273;28;20861;-77
2022/12/11 01:42:52;;;;;;;17.65;12.93;;;-0.40;99.90;;;;;;5095200;28;20219;-78
2022/12/11 01:45:28;;;;;;;18.00;13.57;;;-0.30;1.00;;;;;;5087005;28;20272;-78
2022/12/11 01:48:01;;;;;;;18.92;13.65;;;-0.30;99.90;;;;;;5095726;28;20199;-79
2022/12/11 01:50:32;;;;;;;17.42;13.75;;;-0.20;99.90;;;;;;5101198;28;20228;-77
2022/12/11 01:53:02;;;;;;;17.80;13.70;;;-0.10;99.90;;;;;;5097328;28;20223;-79
2022/12/11 01:55:32;;;;;;;18.48;12.73;;;-0.20;56.40;;;;;;5092416;28;20679;-77
2022/12/11 01:58:02;;;;;;;13.05;11.00;;;-0.30;99.90;;;;;;5094245;28;20215;-77
2022/12/11 02:00:30;;;;;;;16.40;11.50;;;-0.40;99.90;;;;;;5099959;28;20234;-77
2022/12/11 02:02:58;;;;;;;18.75;12.25;;;-0.40;99.90;;;;;;5099088;27;20222;-77
2022/12/11 02:05:26;;;;;;;16.13;11.48;;;-0.30;1.00;;;;;;5100374;27;20195;-77
2022/12/11 02:07:57;;;;;;;17.15;13.07;;;-0.30;1.00;;;;;;5096196;27;20204;-77
2022/12/11 02:10:38;;;;;;;18.45;12.63;;;-0.30;99.90;;;;;;5100234;28;20196;-78
2022/12/11 02:13:13;;;;;;;15.43;10.45;;;-0.20;26.50;;;;;;5095627;28;20225;-79
2022/12/11 02:15:49;;;;;;;18.55;12.38;;;-0.20;23.70;;;;;;5100067;28;20275;-76
2022/12/11 02:18:25;;;;;;;14.18;11.40;;;-0.10;1.00;;;;;;5100004;27;20209;-77
2022/12/11 02:21:01;;;;;;;16.80;11.70;;;-0.20;99.90;;;;;;5098085;27;20673;-77
2022/12/11 02:23:59;;;;;;;17.33;11.55;;;-0.20;1.00;;;;;;5100003;27;20218;-78
2022/12/11 02:27:09;;;;;;;15.40;11.30;;;-0.10;1.00;;;;;;5095484;28;20803;-77
2022/12/11 02:29:44;;;;;;;15.05;10.18;;;0.00;99.90;;;;;;5086408;28;20291;-77
2022/12/11 02:32:19;;;;;;;17.33;10.25;;;0.00;1.00;;;;;;5096216;28;20226;-77
2022/12/11 02:34:53;;;;;;;14.90;11.27;;;0.30;99.90;;;;;;5096874;28;20199;-78
2022/12/11 02:37:24;;;;;;;16.88;12.00;;;0.10;1.00;;;;;;5097683;27;20204;-78
2022/12/11 02:39:54;;;;;;;13.43;10.23;;;0.00;10.00;;;;;;5102472;27;20212;-77
2022/12/11 02:42:28;;;;;;;15.45;11.00;;;0.00;99.90;;;;;;5097604;27;20296;-78
2022/12/11 02:45:00;;;;;;;17.17;10.95;;;0.00;64.00;;;;;;5092823;28;20742;-78
2022/12/11 02:47:31;;;;;;;16.25;14.45;;;0.10;99.90;;;;;;5101684;27;20427;-77
2022/12/11 02:50:03;;;;;;;16.40;11.65;;;0.20;99.90;;;;;;5101284;27;20192;-77
2022/12/11 02:52:32;;;;;;;12.80;9.93;;;0.20;99.90;;;;;;5101085;27;20223;-77
2022/12/11 02:55:03;;;;;;;19.30;12.48;;;0.20;41.30;;;;;;5094931;27;20203;-77
2022/12/11 02:57:38;;;;;;;18.42;13.43;;;0.20;1.00;;;;;;5095392;28;20211;-77
2022/12/11 03:00:09;;;;;;;18.65;13.48;;;0.10;1.00;;;;;;5097002;27;20223;-76
2022/12/11 03:02:38;;;;;;;17.58;11.23;;;0.00;56.20;;;;;;5096100;28;20714;-75
2022/12/11 03:05:07;;;;;;;19.10;14.35;;;-0.10;99.90;;;;;;5093134;28;20207;-77
2022/12/11 03:07:38;;;;;;;25.42;15.18;;;0.00;99.90;;;;;;5098200;28;20218;-78
2022/12/11 03:10:09;;;;;;;13.25;11.30;;;-0.10;99.90;;;;;;5094927;28;20196;-77
2022/12/11 03:12:41;;;;;;;15.43;10.20;;;-0.10;99.90;;;;;;5092400;28;20229;-77
2022/12/11 03:15:15;;;;;;;11.52;10.07;;;0.00;62.30;;;;;;5096883;27;20224;-77
2022/12/11 03:17:56;;;;;;;14.60;10.50;;;0.00;1.00;;;;;;5099337;27;20202;-77
2022/12/11 03:20:34;;;;;;;15.63;10.65;;;0.00;99.90;;;;;;5096848;28;20248;-78
2022/12/11 03:23:11;;;;;;;17.58;13.55;;;-0.10;99.90;;;;;;5096065;28;20309;-78
2022/12/11 03:25:46;;;;;;;33.20;18.88;;;-0.20;99.90;;;;;;5097478;28;20195;-78
2022/12/11 03:28:18;;;;;;;31.70;16.92;;;-0.10;99.90;;;;;;5097820;27;20211;-78
2022/12/11 03:30:51;;;;;;;20.17;14.40;;;-0.20;99.90;;;;;;5090831;27;20265;-78
2022/12/11 03:33:24;;;;;;;14.90;11.10;;;-0.10;99.90;;;;;;5088142;28;20216;-77
2022/12/11 03:35:55;;;;;;;13.70;9.52;;;-0.20;1.00;;;;;;5093285;28;20200;-76
2022/12/11 03:38:28;;;;;;;12.70;10.30;;;-0.10;1.00;;;;;;5099521;28;20210;-77
2022/12/11 03:41:00;;;;;;;12.70;10.65;;;-0.10;99.90;;;;;;5097658;27;20239;-77
2022/12/11 03:43:30;;;;;;;10.50;9.07;;;-0.10;1.00;;;;;;5096446;28;20895;-77
2022/12/11 03:46:01;;;;;;;12.05;9.63;;;-0.10;99.90;;;;;;5094240;28;20701;-77
2022/12/11 03:48:36;;;;;;;10.93;8.98;;;0.00;1.00;;;;;;5094345;28;20671;-78
2022/12/11 03:51:06;;;;;;;12.00;9.13;;;0.00;99.90;;;;;;5092993;28;20614;-78
2022/12/11 03:53:35;;;;;;;11.07;9.50;;;0.00;99.90;;;;;;5095149;28;20722;-78
2022/12/11 03:56:05;;;;;;;13.48;9.55;;;-0.10;99.90;;;;;;5096628;28;20253;-77
2022/12/11 03:58:33;;;;;;;12.80;9.40;;;-0.10;1.00;;;;;;5093798;28;20267;-78
2022/12/11 04:01:02;;;;;;;10.40;8.63;;;0.00;99.90;;;;;;5094420;28;20226;-79
2022/12/11 04:03:31;;;;;;;10.80;9.70;;;0.00;99.90;;;;;;5095759;28;20226;-77
2022/12/11 04:05:59;;;;;;;11.75;9.23;;;0.10;1.00;;;;;;5097537;28;21132;-79
2022/12/11 04:08:27;;;;;;;12.45;9.45;;;0.00;1.00;;;;;;5101823;27;20234;-78
2022/12/11 04:13:38;;;;;;;9.60;7.57;;;0.00;1.00;;;;;;5096462;27;20306;-77
2022/12/11 04:16:07;;;;;;;10.20;9.20;;;0.10;1.00;;;;;;5101030;28;20202;-78
2022/12/11 04:24:16;;;;;;;9.25;8.45;;;0.20;99.90;;;;;;5089675;27;20199;-77
2022/12/11 04:26:46;;;;;;;10.93;8.48;;;0.10;99.90;;;;;;5097922;27;20198;-76
2022/12/11 04:29:15;;;;;;;11.50;7.32;;;0.20;99.90;;;;;;5095355;28;20218;-77
2022/12/11 04:31:44;;;;;;;10.88;8.38;;;0.20;99.90;;;;;;5090673;28;20549;-77
2022/12/11 04:34:13;;;;;;;11.55;8.07;;;0.20;1.00;;;;;;5095784;28;20257;-77
2022/12/11 04:36:41;;;;;;;9.25;8.23;;;0.30;1.00;;;;;;5094451;27;20202;-77
2022/12/11 04:39:09;;;;;;;9.65;8.35;;;0.30;1.00;;;;;;5090216;28;20199;-77
2022/12/11 04:41:37;;;;;;;11.52;8.70;;;0.20;1.00;;;;;;5092605;27;20710;-78
2022/12/11 04:44:05;;;;;;;11.10;8.48;;;0.30;1.00;;;;;;5088906;28;20715;-77
2022/12/11 04:46:34;;;;;;;9.73;7.82;;;0.20;1.00;;;;;;5091192;28;20318;-77
2022/12/11 04:49:03;;;;;;;10.55;8.15;;;0.30;1.00;;;;;;5090284;28;20196;-79
2022/12/11 04:51:31;;;;;;;11.13;8.60;;;0.20;1.00;;;;;;5090202;28;20290;-77
2022/12/11 04:53:59;;;;;;;11.20;9.25;;;0.20;1.00;;;;;;5089678;28;20277;-77
2022/12/11 04:56:27;;;;;;;13.25;9.10;;;0.30;1.00;;;;;;5086623;28;20223;-76
2022/12/11 04:58:56;;;;;;;11.15;8.07;;;0.30;1.00;;;;;;5090252;28;22367;-79
2022/12/11 05:01:24;;;;;;;10.88;8.98;;;0.40;1.00;;;;;;5088877;28;20246;-77
2022/12/11 05:03:52;;;;;;;10.93;9.80;;;0.30;1.00;;;;;;5091657;28;20207;-76
2022/12/11 05:06:22;;;;;;;9.95;8.55;;;0.30;1.00;;;;;;5090980;28;20196;-78
2022/12/11 05:08:50;;;;;;;8.70;7.40;;;0.30;1.00;;;;;;5090745;28;20229;-78
2022/12/11 05:11:18;;;;;;;11.77;9.05;;;0.30;1.00;;;;;;5093246;28;20196;-76
2022/12/11 05:13:46;;;;;;;10.00;7.53;;;0.30;1.00;;;;;;5091068;28;20710;-77
2022/12/11 05:16:16;;;;;;;9.68;7.78;;;0.30;99.90;;;;;;5093233;28;20674;-77
2022/12/11 05:18:46;;;;;;;9.70;8.50;;;0.40;99.90;;;;;;5095760;28;20200;-76
2022/12/11 05:21:15;;;;;;;10.70;8.77;;;0.20;99.90;;;;;;5093784;28;20225;-77
2022/12/11 05:23:45;;;;;;;11.40;8.82;;;0.30;99.90;;;;;;5096792;27;20640;-77
2022/12/11 05:26:15;;;;;;;12.82;9.98;;;0.20;99.90;;;;;;5087230;28;20207;-78
2022/12/11 05:28:44;;;;;;;10.85;8.55;;;0.10;99.90;;;;;;5087662;28;20274;-75
2022/12/11 05:31:14;;;;;;;9.93;7.95;;;0.30;99.90;;;;;;5090279;28;20207;-79
2022/12/11 05:33:43;;;;;;;9.02;7.75;;;0.20;99.90;;;;;;5085952;28;20219;-78
2022/12/11 05:36:17;;;;;;;10.25;7.40;;;0.20;99.90;;;;;;5091980;28;20279;-78
2022/12/11 05:38:46;;;;;;;10.55;8.48;;;0.20;99.90;;;;;;5094584;28;20282;-77
2022/12/11 05:41:17;;;;;;;10.13;8.50;;;0.20;99.90;;;;;;5092965;28;20214;-78
2022/12/11 05:43:46;;;;;;;11.02;8.50;;;0.10;99.90;;;;;;5088363;28;20234;-77
2022/12/11 05:46:16;;;;;;;11.45;8.02;;;0.10;99.90;;;;;;5094863;28;20820;-78
2022/12/11 05:48:47;;;;;;;11.80;10.48;;;0.10;99.90;;;;;;5088871;28;20280;-78
2022/12/11 05:51:16;;;;;;;9.10;7.45;;;0.10;99.90;;;;;;5090980;28;20283;-78
2022/12/11 05:53:48;;;;;;;13.00;9.57;;;0.10;99.90;;;;;;5087903;28;20220;-78
2022/12/11 05:56:18;;;;;;;11.63;8.85;;;-0.10;99.90;;;;;;5095415;28;20192;-79
2022/12/11 05:58:47;;;;;;;12.10;8.43;;;-0.30;99.90;;;;;;5097995;28;20211;-80
2022/12/11 06:01:18;;;;;;;9.82;8.23;;;-0.30;1.00;;;;;;5097817;28;20216;-79
2022/12/11 06:03:47;;;;;;;13.82;11.65;;;-0.30;99.90;;;;;;5096579;28;20313;-77
2022/12/11 06:06:15;;;;;;;11.70;9.30;;;-0.40;99.90;;;;;;5096368;28;20230;-77
2022/12/11 06:08:44;;;;;;;11.63;8.85;;;-0.50;99.90;;;;;;5094014;28;20204;-77
2022/12/11 06:11:14;;;;;;;12.77;9.52;;;-0.50;1.00;;;;;;5092606;28;20221;-77
2022/12/11 06:13:49;;;;;;;13.90;10.50;;;-0.60;1.00;;;;;;5083988;28;20915;-78
2022/12/11 06:16:17;;;;;;;12.55;8.25;;;-0.60;1.00;;;;;;5096348;28;20246;-78
2022/12/11 06:18:45;;;;;;;13.35;9.65;;;-0.50;1.00;;;;;;5091148;28;20258;-77
2022/12/11 06:21:15;;;;;;;10.20;8.23;;;-0.50;1.00;;;;;;5091493;28;20301;-77
2022/12/11 06:23:44;;;;;;;11.02;8.50;;;-0.60;1.00;;;;;;5098202;28;20210;-79
2022/12/11 06:26:14;;;;;;;11.73;9.68;;;-0.60;1.00;;;;;;5096278;28;20242;-78
2022/12/11 06:28:42;;;;;;;14.10;9.20;;;-0.70;1.00;;;;;;5094780;28;20196;-78
2022/12/11 06:31:11;;;;;;;12.55;9.88;;;-0.70;1.00;;;;;;5095485;28;20232;-79
2022/12/11 06:33:39;;;;;;;12.65;9.18;;;-0.80;1.00;;;;;;5099184;28;20223;-77
2022/12/11 06:36:10;;;;;;;11.00;8.23;;;-0.80;1.00;;;;;;5095822;28;20223;-77
2022/12/11 06:38:39;;;;;;;12.15;10.27;;;-0.80;1.00;;;;;;5097983;28;20191;-79
2022/12/11 06:41:09;;;;;;;11.55;9.68;;;-0.90;1.00;;;;;;5093158;28;20212;-79
2022/12/11 06:43:40;;;;;;;11.20;8.52;;;-0.80;1.00;;;;;;5099192;28;20318;-79
2022/12/11 06:46:10;;;;;;;10.73;9.07;;;-0.80;17.40;;;;;;5101916;28;20227;-79
2022/12/11 06:48:40;;;;;;;15.50;9.93;;;-0.90;1.00;;;;;;5101908;27;20635;-79
2022/12/11 06:51:11;;;;;;;14.07;10.13;;;-1.00;99.90;;;;;;5099595;28;20204;-79
2022/12/11 06:53:39;;;;;;;11.40;9.20;;;-1.00;99.90;;;;;;5098477;27;20251;-77
2022/12/11 06:56:09;;;;;;;13.80;8.90;;;-1.00;1.00;;;;;;5093023;28;20249;-78
2022/12/11 06:58:40;;;;;;;14.07;10.77;;;-0.70;66.10;;;;;;5107393;27;20725;-79
2022/12/11 07:01:15;;;;;;;12.13;9.82;;;-0.80;1.00;;;;;;5098414;28;20215;-79
2022/12/11 07:03:43;;;;;;;14.13;10.45;;;-0.80;1.00;;;;;;5095680;28;20226;-76
2022/12/11 07:06:11;;;;;;;13.43;10.18;;;-0.80;1.00;;;;;;5102961;28;20709;-78
2022/12/11 07:08:40;;;;;;;10.02;8.35;;;-0.80;1.00;;;;;;5099770;27;20269;-78
2022/12/11 07:11:10;;;;;;;16.80;10.07;;;-0.80;1.00;;;;;;5099414;28;20184;-79
2022/12/11 07:13:40;;;;;;;11.75;9.43;;;-0.90;1.00;;;;;;5091790;28;20212;-77
2022/12/11 07:16:10;;;;;;;14.57;9.80;;;-1.00;20.80;;;;;;5096613;28;20397;-77
2022/12/11 07:18:40;;;;;;;12.00;9.43;;;-1.00;1.00;;;;;;5100120;27;20212;-77
2022/12/11 07:21:10;;;;;;;15.07;9.68;;;-0.90;88.10;;;;;;5100144;28;20770;-78
2022/12/11 07:23:38;;;;;;;13.55;9.32;;;-0.90;99.90;;;;;;5099421;28;20226;-77
2022/12/11 07:26:09;;;;;;;15.13;10.35;;;-0.90;71.20;;;;;;5093245;28;20295;-77
2022/12/11 07:28:39;;;;;;;13.45;10.82;;;-0.90;99.90;;;;;;5097109;28;20260;-77
2022/12/11 07:31:08;;;;;;;12.55;10.00;;;-1.00;99.90;;;;;;5093987;28;20774;-77
2022/12/11 07:33:37;;;;;;;11.65;9.98;;;-0.90;99.90;;;;;;5097907;28;20246;-77
2022/12/11 07:36:08;;;;;;;11.98;9.20;;;-0.90;99.90;;;;;;5099703;28;20563;-77
2022/12/11 07:38:36;;;;;;;13.02;9.32;;;-1.00;99.90;;;;;;5099317;27;20225;-78
2022/12/11 07:41:06;;;;;;;13.30;10.50;;;-0.90;1.00;;;;;;5097640;28;20202;-78
2022/12/11 07:43:35;;;;;;;13.82;9.45;;;-0.90;99.90;;;;;;5096155;27;20270;-78
2022/12/11 07:46:06;;;;;;;12.93;10.30;;;-0.90;1.00;;;;;;5097080;28;20258;-77
2022/12/11 07:48:35;;;;;;;15.00;10.43;;;-0.90;1.00;;;;;;5097767;28;20216;-77
2022/12/11 07:51:10;;;;;;;13.80;10.15;;;-0.90;1.00;;;;;;5098535;28;20199;-77
2022/12/11 07:53:39;;;;;;;12.93;10.35;;;-0.80;1.00;;;;;;5093506;28;20207;-78
2022/12/11 07:56:07;;;;;;;11.98;10.77;;;-0.80;1.00;;;;;;5094946;28;20725;-78
2022/12/11 07:58:37;;;;;;;15.07;10.82;;;-0.70;1.00;;;;;;5099742;27;20214;-78
2022/12/11 08:01:11;;;;;;;16.20;11.77;;;-0.50;1.00;;;;;;5096133;28;20200;-78
2022/12/11 08:03:40;;;;;;;12.98;9.70;;;-0.50;99.90;;;;;;5095482;27;20215;-78
2022/12/11 08:06:09;;;;;;;14.85;11.10;;;-0.50;99.90;;;;;;5098963;27;20588;-78
2022/12/11 08:08:38;;;;;;;12.73;9.95;;;-0.30;1.00;;;;;;5093525;28;20201;-79
2022/12/11 08:11:10;;;;;;;15.55;10.63;;;-0.10;1.00;;;;;;5094053;28;20291;-78
2022/12/11 08:13:40;;;;;;;15.35;10.05;;;0.00;99.90;;;;;;5100719;28;20243;-78
2022/12/11 08:16:12;;;;;;;16.23;10.90;;;0.20;99.90;;;;;;5102028;28;20203;-79
2022/12/11 08:18:41;;;;;;;12.68;9.70;;;0.40;99.90;;;;;;5097268;28;20184;-78
2022/12/11 08:21:11;;;;;;;11.68;9.60;;;0.40;99.90;;;;;;5092908;28;20200;-78
2022/12/11 08:23:39;;;;;;;12.32;8.45;;;0.60;99.90;;;;;;5099846;27;20227;-78
2022/12/11 08:26:15;;;;;;;11.20;9.43;;;0.80;99.90;;;;;;5098511;28;20248;-78
2022/12/11 08:28:43;;;;;;;13.18;9.68;;;0.80;16.60;;;;;;5092053;28;20292;-79
2022/12/11 08:31:14;;;;;;;13.18;10.20;;;0.70;1.00;;;;;;5093262;28;20211;-78
2022/12/11 08:33:43;;;;;;;16.10;10.63;;;0.60;1.00;;;;;;5093536;27;20575;-78
2022/12/11 08:36:13;;;;;;;13.32;9.65;;;0.50;9.90;;;;;;5095315;27;20215;-78
2022/12/11 08:38:42;;;;;;;12.93;9.55;;;0.50;1.00;;;;;;5098659;28;20212;-77
2022/12/11 08:41:11;;;;;;;13.32;9.80;;;0.40;46.90;;;;;;5095036;27;20211;-78
2022/12/11 08:43:40;;;;;;;11.57;9.02;;;0.40;27.30;;;;;;5098336;27;20228;-79
2022/12/11 08:46:09;;;;;;;12.80;9.55;;;0.40;7.10;;;;;;5098299;28;20192;-78
2022/12/11 08:48:40;;;;;;;13.82;9.98;;;0.50;1.00;;;;;;5099078;27;20755;-79
2022/12/11 08:51:12;;;;;;;23.25;15.63;;;0.30;59.50;;;;;;5095066;28;20746;-79
2022/12/11 08:53:40;;;;;;;15.75;11.05;;;0.30;99.90;;;;;;5095331;27;20227;-78
2022/12/11 08:56:10;;;;;;;14.00;9.48;;;0.30;99.90;;;;;;5098021;28;20284;-79
2022/12/11 08:58:39;;;;;;;11.90;10.43;;;0.30;99.90;;;;;;5101472;27;20223;-79
2022/12/11 09:01:08;;;;;;;16.38;10.52;;;0.30;99.90;;;;;;5096872;28;20252;-79
2022/12/11 09:03:39;;;;;;;13.52;9.60;;;0.40;99.90;;;;;;5101947;27;20302;-78
2022/12/11 09:06:09;;;;;;;13.05;8.77;;;0.40;99.90;;;;;;5096487;28;20198;-79
2022/12/11 09:08:38;;;;;;;13.35;8.27;;;0.60;99.90;;;;;;5098309;28;20190;-79
2022/12/11 09:11:08;;;;;;;11.85;8.93;;;0.60;96.00;;;;;;5097245;28;20250;-80
2022/12/11 09:13:37;;;;;;;11.45;8.45;;;0.60;92.10;;;;;;5093146;28;20210;-79
2022/12/11 09:16:06;;;;;;;13.50;9.13;;;0.60;16.60;;;;;;5096616;28;20202;-78
2022/12/11 09:18:35;;;;;;;10.30;8.40;;;0.70;1.00;;;;;;5112804;27;20195;-78
2022/12/11 09:21:07;;;;;;;12.18;8.18;;;0.70;1.00;;;;;;5095124;28;20199;-79
2022/12/11 09:23:37;;;;;;;10.13;8.23;;;0.70;5.00;;;;;;5097567;28;20262;-79
2022/12/11 09:26:06;;;;;;;10.57;8.13;;;0.60;1.00;;;;;;5092995;28;20625;-79
2022/12/11 09:28:34;;;;;;;20.10;13.48;;;0.70;1.00;;;;;;5099364;27;20211;-78
2022/12/11 09:31:07;;;;;;;10.18;7.10;;;0.70;1.00;;;;;;5094182;28;20288;-77
2022/12/11 09:33:35;;;;;;;9.52;6.90;;;0.70;1.00;;;;;;5094447;28;20214;-78
2022/12/11 09:36:06;;;;;;;11.00;8.13;;;0.70;1.00;;;;;;5095160;28;20238;-77
2022/12/11 09:38:35;;;;;;;11.18;7.10;;;0.80;1.00;;;;;;5096201;28;20203;-77
2022/12/11 09:41:35;;;;;;;16.92;10.93;;;0.80;1.00;;;;;;5095382;28;20203;-77
2022/12/11 09:44:19;;;;;;;14.48;8.90;;;0.90;1.00;;;;;;5101306;28;20337;-79
2022/12/11 09:46:49;;;;;;;14.07;8.65;;;1.20;1.00;;;;;;5094500;28;20281;-78
2022/12/11 09:49:26;;;;;;;10.98;8.95;;;1.10;1.00;;;;;;5096883;28;20264;-79
2022/12/11 09:52:08;;;;;;;12.65;8.40;;;1.20;1.00;;;;;;5097556;28;20585;-77
2022/12/11 09:54:37;;;;;;;11.65;7.75;;;1.00;1.00;;;;;;5091640;28;20214;-79
2022/12/11 09:57:17;;;;;;;11.02;8.25;;;1.00;1.00;;;;;;5096594;28;20208;-77
2022/12/11 09:59:58;;;;;;;9.25;7.75;;;1.20;1.00;;;;;;5093984;28;20216;-77
2022/12/11 10:02:45;;;;;;;9.75;7.40;;;1.10;1.00;;;;;;5094768;28;20245;-79
2022/12/11 10:05:21;;;;;;;10.40;7.82;;;1.00;1.00;;;;;;5093197;28;20615;-78
2022/12/11 10:07:59;;;;;;;15.82;10.98;;;1.00;1.00;;;;;;5093953;28;20273;-78
2022/12/11 10:10:36;;;;;;;9.93;8.65;;;1.00;1.00;;;;;;5112262;27;20255;-79
2022/12/11 10:13:12;;;;;;;13.77;10.70;;;0.90;1.00;;;;;;5097748;28;20208;-77
2022/12/11 10:15:46;;;;;;;13.20;8.00;;;1.00;1.00;;;;;;5106868;28;20559;-79
2022/12/11 10:18:18;;;;;;;14.93;9.90;;;1.10;1.00;;;;;;5101162;28;20233;-78
2022/12/11 10:20:47;;;;;;;11.40;8.25;;;1.20;1.00;;;;;;5094914;28;20191;-78
2022/12/11 10:23:19;;;;;;;9.32;7.60;;;1.30;1.00;;;;;;5098056;28;20216;-78
2022/12/11 10:25:52;;;;;;;8.52;6.22;;;1.20;1.00;;;;;;5099490;27;21086;-78
2022/12/11 10:28:21;;;;;;;9.45;7.50;;;1.20;1.00;;;;;;5102707;27;20196;-78
2022/12/11 10:30:55;;;;;;;12.25;8.95;;;1.50;1.00;;;;;;5100178;27;20444;-80
2022/12/11 10:33:33;;;;;;;14.13;9.48;;;1.50;1.00;;;;;;5100337;27;20239;-80
2022/12/11 10:36:01;;;;;;;13.35;10.05;;;1.60;1.00;;;;;;5097720;28;20203;-80
2022/12/11 10:38:32;;;;;;;10.90;8.43;;;1.50;1.00;;;;;;5103803;27;20253;-79
2022/12/11 10:41:03;;;;;;;10.82;8.00;;;1.70;1.00;;;;;;5100549;28;20296;-80
2022/12/11 10:43:36;;;;;;;9.15;6.82;;;1.70;1.00;;;;;;5098514;27;20217;-79
2022/12/11 10:46:07;;;;;;;9.43;7.45;;;1.70;1.00;;;;;;5101198;27;20206;-78
2022/12/11 10:48:44;;;;;;;9.80;6.90;;;1.50;1.00;;;;;;5099461;27;20804;-79
2022/12/11 10:51:14;;;;;;;11.05;7.97;;;1.50;1.00;;;;;;5097969;27;20194;-80
2022/12/11 10:53:49;;;;;;;9.48;7.20;;;1.70;1.00;;;;;;5099779;27;20231;-79
2022/12/11 10:56:25;;;;;;;8.10;7.05;;;1.70;1.00;;;;;;5098328;27;20721;-80
2022/12/11 10:58:56;;;;;;;10.50;8.18;;;1.70;1.00;;;;;;5100634;28;20205;-80
2022/12/11 11:01:27;;;;;;;10.23;8.13;;;1.80;1.00;;;;;;5098601;27;20201;-80
2022/12/11 11:03:59;;;;;;;9.93;6.85;;;1.70;1.00;;;;;;5102315;27;20215;-79
2022/12/11 11:06:27;;;;;;;11.15;7.50;;;1.80;1.00;;;;;;5095949;28;20200;-78
2022/12/11 11:08:59;;;;;;;9.68;8.32;;;1.80;1.00;;;;;;5093260;28;20597;-79
2022/12/11 11:11:31;;;;;;;11.20;7.18;;;1.90;1.00;;;;;;5099389;28;20192;-78
2022/12/11 11:14:14;;;;;;;13.10;8.45;;;1.90;1.00;;;;;;5098436;27;20249;-76
2022/12/11 11:16:45;;;;;;;9.27;7.88;;;1.80;99.90;;;;;;5098218;28;20207;-79
2022/12/11 11:19:24;;;;;;;10.25;7.90;;;2.00;1.00;;;;;;5096934;28;20206;-77
2022/12/11 11:21:57;;;;;;;11.10;7.45;;;1.90;1.00;;;;;;5103199;27;20212;-78
2022/12/11 11:24:32;;;;;;;32.00;16.00;;;1.80;1.00;;;;;;5099340;28;20208;-78
2022/12/11 11:27:00;;;;;;;17.83;10.55;;;1.60;1.00;;;;;;5095081;28;20202;-78
2022/12/11 11:29:41;;;;;;;20.50;9.25;;;1.90;1.00;;;;;;5095875;28;20210;-78
2022/12/11 11:32:20;;;;;;;23.42;12.45;;;1.80;1.00;;;;;;5092894;28;20221;-78
2022/12/11 11:34:48;;;;;;;17.63;10.40;;;1.80;1.00;;;;;;5095510;28;20248;-78
2022/12/11 11:37:25;;;;;;;17.75;12.32;;;1.90;1.00;;;;;;5095858;28;20205;-78
2022/12/11 11:40:03;;;;;;;8.43;6.30;;;1.90;1.00;;;;;;5094716;28;20201;-78
2022/12/11 11:42:42;;;;;;;7.72;6.18;;;2.00;1.00;;;;;;5100051;28;20306;-77
2022/12/11 11:45:16;;;;;;;7.78;6.38;;;2.00;1.00;;;;;;5097828;28;20227;-77
2022/12/11 11:47:52;;;;;;;10.02;6.57;;;2.00;1.00;;;;;;5099040;28;20619;-78
2022/12/11 11:50:25;;;;;;;14.15;11.20;;;2.00;1.00;;;;;;5097346;28;20415;-77
2022/12/11 11:53:00;;;;;;;18.52;12.90;;;2.00;1.00;;;;;;5101706;28;20219;-81
2022/12/11 11:55:41;;;;;;;13.75;8.35;;;2.00;1.00;;;;;;5091527;28;20283;-79
2022/12/11 11:58:15;;;;;;;10.25;7.28;;;2.00;1.00;;;;;;5099882;28;20222;-79
2022/12/11 12:00:43;;;;;;;10.20;7.45;;;2.10;1.00;;;;;;5093927;28;20185;-79
2022/12/11 12:03:16;;;;;;;8.93;6.50;;;2.10;1.00;;;;;;5095104;28;20240;-77
2022/12/11 12:05:51;;;;;;;18.65;12.68;;;1.90;1.00;;;;;;5090036;28;20216;-80
2022/12/11 12:08:31;;;;;;;11.50;7.95;;;2.10;1.00;;;;;;5105934;28;20201;-77
2022/12/11 12:11:07;;;;;;;8.15;7.20;;;2.10;1.00;;;;;;5099238;28;20461;-79
2022/12/11 12:13:45;;;;;;;9.32;7.40;;;2.00;1.00;;;;;;5098907;28;20217;-78
2022/12/11 12:16:27;;;;;;;9.63;6.78;;;2.10;1.00;;;;;;5097618;28;20200;-78
2022/12/11 12:19:26;;;;;;;11.57;7.13;;;2.10;1.00;;;;;;5098273;28;20672;-79
2022/12/11 12:22:18;;;;;;;9.82;6.93;;;2.00;1.00;;;;;;5085896;28;20216;-79
2022/12/11 12:24:55;;;;;;;9.73;7.68;;;2.10;1.00;;;;;;5086780;28;20216;-79
2022/12/11 12:27:33;;;;;;;12.35;8.20;;;2.10;1.00;;;;;;5089667;27;20306;-77
2022/12/11 12:30:22;;;;;;;8.57;6.95;;;2.10;1.00;;;;;;5093115;27;20273;-79
2022/12/11 12:33:20;;;;;;;9.63;6.63;;;2.30;1.00;;;;;;5091366;28;20225;-78
2022/12/11 12:35:56;;;;;;;9.18;7.60;;;2.30;1.00;;;;;;5089816;28;20200;-79
2022/12/11 12:38:40;;;;;;;10.07;8.48;;;2.20;1.00;;;;;;5090035;27;20722;-77
2022/12/11 12:41:15;;;;;;;8.60;7.25;;;2.10;1.00;;;;;;5093730;28;20266;-78
2022/12/11 12:43:59;;;;;;;9.45;7.60;;;2.20;1.00;;;;;;5085296;28;20256;-79
2022/12/11 12:46:39;;;;;;;7.15;6.13;;;2.30;1.00;;;;;;5087678;28;20725;-79
2022/12/11 12:49:15;;;;;;;6.18;5.50;;;2.30;1.00;;;;;;5097692;28;20206;-79
2022/12/11 12:51:45;;;;;;;7.20;6.20;;;2.40;1.00;;;;;;5092540;28;20200;-80
2022/12/11 12:54:17;;;;;;;8.05;5.18;;;2.40;1.00;;;;;;5094004;28;20213;-80
2022/12/11 12:56:47;;;;;;;6.68;5.28;;;2.50;99.90;;;;;;5092103;28;20220;-77
2022/12/11 12:59:22;;;;;;;6.95;5.20;;;2.40;99.90;;;;;;5096980;28;20204;-78
2022/12/11 13:01:55;;;;;;;7.28;6.57;;;2.50;1.00;;;;;;5088858;28;20199;-80
2022/12/11 13:04:55;;;;;;;9.48;7.50;;;2.60;99.90;;;;;;5080000;27;20329;-79
2022/12/11 13:07:28;;;;;;;13.07;8.70;;;2.60;99.90;;;;;;5096690;27;20693;-78
2022/12/11 13:10:01;;;;;;;10.48;8.38;;;2.60;99.90;;;;;;5092877;28;20234;-79
2022/12/11 13:12:50;;;;;;;9.45;7.63;;;2.40;99.90;;;;;;5090325;28;20273;-79
2022/12/11 13:15:37;;;;;;;68.72;37.63;;;2.40;1.00;;;;;;5086599;28;20680;-79
2022/12/11 13:18:35;;;;;;;13.88;10.48;;;2.50;1.00;;;;;;5089258;28;20200;-79